sensor_id;sensor_type;location;lat;lon;timestamp;temperature;humidity
26503;DHT22;14177;51.520;6.764;2024-01-15T00:01:22;1.40;99.90
26503;DHT22;14177;51.520;6.764;2024-01-15T00:03:49;1.40;99.90
26503;DHT22;14177;51.520;6.764;2024-01-15T00:06:16;1.40;99.90
26503;DHT22;14177;51.520;6.764;2024-01-15T00:08:43;1.40;99.90
26503;DHT22;14177;51.520;6.764;2024-01-15T00:11:10;1.40;99.90
26503;DHT22;14177;51.520;6.764;2024-01-15T00:13:37;1.40;99.90
26503;DHT22;14177;51.520;6.764;2024-01-15T00:16:05;1.40;99.90
26503;DHT22;14177;51.520;6.764;2024-01-15T00:18:32;1.40;99.90
26503;DHT22;14177;51.520;6.764;2024-01-15T00:20:59;1.40;99.90
26503;DHT22;14177;51.520;6.764;2024-01-15T00:23:26;1.50;99.90
26503;DHT22;14177;51.520;6.764;2024-01-15T00:25:53;1.50;99.90
26503;DHT22;14177;51.520;6.764;2024-01-15T00:28:20;1.50;99.90
26503;DHT22;14177;51.520;6.764;2024-01-15T00:30:47;1.50;99.90
26503;DHT22;14177;51.520;6.764;2024-01-15T00:33:15;1.50;99.90
26503;DHT22;14177;51.520;6.764;2024-01-15T00:35:42;1.50;99.90
26503;DHT22;14177;51.520;6.764;2024-01-15T00:38:09;1.50;99.90
26503;DHT22;14177;51.520;6.764;2024-01-15T00:40:36;1.50;99.90
26503;DHT22;14177;51.520;6.764;2024-01-15T00:43:04;1.50;99.90
26503;DHT22;14177;51.520;6.764;2024-01-15T00:45:31;1.50;99.90
26503;DHT22;14177;51.520;6.764;2024-01-15T00:47:58;1.50;99.90
26503;DHT22;14177;51.520;6.764;2024-01-15T00:50:28;1.50;99.90
26503;DHT22;14177;51.520;6.764;2024-01-15T00:52:56;1.50;99.90
26503;DHT22;14177;51.520;6.764;2024-01-15T00:55:23;1.50;99.90
26503;DHT22;14177;51.520;6.764;2024-01-15T00:57:50;1.50;99.90
26503;DHT22;14177;51.520;6.764;2024-01-15T01:00:17;1.50;99.90
26503;DHT22;14177;51.520;6.764;2024-01-15T01:02:45;1.50;99.90
26503;DHT22;14177;51.520;6.764;2024-01-15T01:05:12;1.50;99.90
26503;DHT22;14177;51.520;6.764;2024-01-15T01:07:39;1.50;99.90
26503;DHT22;14177;51.520;6.764;2024-01-15T01:10:06;1.50;99.90
26503;DHT22;14177;51.520;6.764;2024-01-15T01:12:33;1.50;99.90
26503;DHT22;14177;51.520;6.764;2024-01-15T01:15:00;1.50;99.90
26503;DHT22;14177;51.520;6.764;2024-01-15T01:17:28;1.50;99.90
26503;DHT22;14177;51.520;6.764;2024-01-15T01:19:55;1.50;99.90
26503;DHT22;14177;51.520;6.764;2024-01-15T01:22:22;1.50;99.90
26503;DHT22;14177;51.520;6.764;2024-01-15T01:24:49;1.50;99.90
26503;DHT22;14177;51.520;6.764;2024-01-15T01:27:16;1.50;99.90
26503;DHT22;14177;51.520;6.764;2024-01-15T01:29:43;1.50;99.90
26503;DHT22;14177;51.520;6.764;2024-01-15T01:32:10;1.50;99.90
26503;DHT22;14177;51.520;6.764;2024-01-15T01:34:41;1.50;99.90
26503;DHT22;14177;51.520;6.764;2024-01-15T01:37:11;1.50;99.90
26503;DHT22;14177;51.520;6.764;2024-01-15T01:39:42;1.50;99.90
26503;DHT22;14177;51.520;6.764;2024-01-15T01:42:10;1.50;99.90
26503;DHT22;14177;51.520;6.764;2024-01-15T01:44:37;1.50;99.90
26503;DHT22;14177;51.520;6.764;2024-01-15T01:47:05;1.50;99.90
26503;DHT22;14177;51.520;6.764;2024-01-15T01:49:33;1.50;99.90
26503;DHT22;14177;51.520;6.764;2024-01-15T01:52:05;1.60;99.90
26503;DHT22;14177;51.520;6.764;2024-01-15T01:54:34;1.50;99.90
26503;DHT22;14177;51.520;6.764;2024-01-15T01:57:03;1.50;99.90
26503;DHT22;14177;51.520;6.764;2024-01-15T01:59:33;1.60;99.90
26503;DHT22;14177;51.520;6.764;2024-01-15T02:02:02;1.60;99.90
26503;DHT22;14177;51.520;6.764;2024-01-15T02:04:31;1.60;99.90
26503;DHT22;14177;51.520;6.764;2024-01-15T02:07:00;1.50;99.90
26503;DHT22;14177;51.520;6.764;2024-01-15T02:09:27;1.50;99.90
26503;DHT22;14177;51.520;6.764;2024-01-15T02:11:54;1.60;99.90
26503;DHT22;14177;51.520;6.764;2024-01-15T02:14:21;1.60;99.90
26503;DHT22;14177;51.520;6.764;2024-01-15T02:16:49;1.50;99.90
26503;DHT22;14177;51.520;6.764;2024-01-15T02:19:17;1.60;99.90
26503;DHT22;14177;51.520;6.764;2024-01-15T02:21:44;1.60;99.90
26503;DHT22;14177;51.520;6.764;2024-01-15T02:24:11;1.50;99.90
26503;DHT22;14177;51.520;6.764;2024-01-15T02:26:39;1.50;99.90
26503;DHT22;14177;51.520;6.764;2024-01-15T02:29:07;1.50;99.90
26503;DHT22;14177;51.520;6.764;2024-01-15T02:31:37;1.50;99.90
26503;DHT22;14177;51.520;6.764;2024-01-15T02:34:04;1.60;99.90
26503;DHT22;14177;51.520;6.764;2024-01-15T02:36:32;1.60;99.90
26503;DHT22;14177;51.520;6.764;2024-01-15T02:38:59;1.60;99.90
26503;DHT22;14177;51.520;6.764;2024-01-15T02:41:26;1.60;99.90
26503;DHT22;14177;51.520;6.764;2024-01-15T02:43:53;1.60;99.90
26503;DHT22;14177;51.520;6.764;2024-01-15T02:46:19;1.60;99.90
26503;DHT22;14177;51.520;6.764;2024-01-15T02:48:46;1.60;99.90
26503;DHT22;14177;51.520;6.764;2024-01-15T02:51:14;1.60;99.90
26503;DHT22;14177;51.520;6.764;2024-01-15T02:53:41;1.60;99.90
26503;DHT22;14177;51.520;6.764;2024-01-15T02:56:08;1.60;99.90
26503;DHT22;14177;51.520;6.764;2024-01-15T02:58:34;1.60;99.90
26503;DHT22;14177;51.520;6.764;2024-01-15T03:01:01;1.60;99.90
26503;DHT22;14177;51.520;6.764;2024-01-15T03:03:29;1.60;99.90
26503;DHT22;14177;51.520;6.764;2024-01-15T03:05:56;1.60;99.90
26503;DHT22;14177;51.520;6.764;2024-01-15T03:08:23;1.60;99.90
26503;DHT22;14177;51.520;6.764;2024-01-15T03:10:50;1.60;99.90
26503;DHT22;14177;51.520;6.764;2024-01-15T03:13:17;1.60;99.90
26503;DHT22;14177;51.520;6.764;2024-01-15T03:15:45;1.60;99.90
26503;DHT22;14177;51.520;6.764;2024-01-15T03:18:13;1.50;99.90
26503;DHT22;14177;51.520;6.764;2024-01-15T03:20:40;1.50;99.90
26503;DHT22;14177;51.520;6.764;2024-01-15T03:23:07;1.50;99.90
26503;DHT22;14177;51.520;6.764;2024-01-15T03:25:33;1.50;99.90
26503;DHT22;14177;51.520;6.764;2024-01-15T03:28:00;1.50;99.90
26503;DHT22;14177;51.520;6.764;2024-01-15T03:30:27;1.50;99.90
26503;DHT22;14177;51.520;6.764;2024-01-15T03:32:55;1.50;99.90
26503;DHT22;14177;51.520;6.764;2024-01-15T03:35:22;1.50;99.90
26503;DHT22;14177;51.520;6.764;2024-01-15T03:37:49;1.40;99.90
26503;DHT22;14177;51.520;6.764;2024-01-15T03:40:16;1.50;99.90
26503;DHT22;14177;51.520;6.764;2024-01-15T03:42:47;1.50;99.90
26503;DHT22;14177;51.520;6.764;2024-01-15T03:45:14;1.50;99.90
26503;DHT22;14177;51.520;6.764;2024-01-15T03:47:41;1.50;99.90
26503;DHT22;14177;51.520;6.764;2024-01-15T03:50:09;1.50;99.90
26503;DHT22;14177;51.520;6.764;2024-01-15T03:52:36;1.50;99.90
26503;DHT22;14177;51.520;6.764;2024-01-15T03:55:04;1.50;99.90
26503;DHT22;14177;51.520;6.764;2024-01-15T03:57:31;1.50;99.90
26503;DHT22;14177;51.520;6.764;2024-01-15T03:59:58;1.50;99.90
26503;DHT22;14177;51.520;6.764;2024-01-15T04:02:25;1.50;99.90
26503;DHT22;14177;51.520;6.764;2024-01-15T04:04:52;1.50;99.90
26503;DHT22;14177;51.520;6.764;2024-01-15T04:07:19;1.50;99.90
26503;DHT22;14177;51.520;6.764;2024-01-15T04:09:46;1.50;99.90
26503;DHT22;14177;51.520;6.764;2024-01-15T04:12:13;1.50;99.90
26503;DHT22;14177;51.520;6.764;2024-01-15T04:14:40;1.50;99.90
26503;DHT22;14177;51.520;6.764;2024-01-15T04:17:07;1.40;99.90
26503;DHT22;14177;51.520;6.764;2024-01-15T04:19:34;1.40;99.90
26503;DHT22;14177;51.520;6.764;2024-01-15T04:22:01;1.40;99.90
26503;DHT22;14177;51.520;6.764;2024-01-15T04:24:28;1.30;99.90
26503;DHT22;14177;51.520;6.764;2024-01-15T04:26:55;1.40;99.90
26503;DHT22;14177;51.520;6.764;2024-01-15T04:29:22;1.40;99.90
26503;DHT22;14177;51.520;6.764;2024-01-15T04:31:49;1.40;99.90
26503;DHT22;14177;51.520;6.764;2024-01-15T04:34:17;1.40;99.90
26503;DHT22;14177;51.520;6.764;2024-01-15T04:36:44;1.50;99.90
26503;DHT22;14177;51.520;6.764;2024-01-15T04:39:11;1.40;99.90
26503;DHT22;14177;51.520;6.764;2024-01-15T04:41:38;1.40;99.90
26503;DHT22;14177;51.520;6.764;2024-01-15T04:44:05;1.50;99.90
26503;DHT22;14177;51.520;6.764;2024-01-15T04:46:32;1.50;99.90
26503;DHT22;14177;51.520;6.764;2024-01-15T04:48:59;1.50;99.90
26503;DHT22;14177;51.520;6.764;2024-01-15T04:51:26;1.50;99.90
26503;DHT22;14177;51.520;6.764;2024-01-15T04:53:53;1.50;99.90
26503;DHT22;14177;51.520;6.764;2024-01-15T04:56:20;1.40;99.90
26503;DHT22;14177;51.520;6.764;2024-01-15T04:58:47;1.40;99.90
26503;DHT22;14177;51.520;6.764;2024-01-15T05:01:16;1.50;99.90
26503;DHT22;14177;51.520;6.764;2024-01-15T05:03:43;1.40;99.90
26503;DHT22;14177;51.520;6.764;2024-01-15T05:06:11;1.50;99.90
26503;DHT22;14177;51.520;6.764;2024-01-15T05:08:38;1.40;99.90
26503;DHT22;14177;51.520;6.764;2024-01-15T05:11:05;1.50;99.90
26503;DHT22;14177;51.520;6.764;2024-01-15T05:13:32;1.40;99.90
26503;DHT22;14177;51.520;6.764;2024-01-15T05:15:59;1.50;99.90
26503;DHT22;14177;51.520;6.764;2024-01-15T05:18:26;1.40;99.90
26503;DHT22;14177;51.520;6.764;2024-01-15T05:20:53;1.50;99.90
26503;DHT22;14177;51.520;6.764;2024-01-15T05:23:20;1.50;99.90
26503;DHT22;14177;51.520;6.764;2024-01-15T05:25:47;1.50;99.90
26503;DHT22;14177;51.520;6.764;2024-01-15T05:28:14;1.50;99.90
26503;DHT22;14177;51.520;6.764;2024-01-15T05:30:41;1.50;99.90
26503;DHT22;14177;51.520;6.764;2024-01-15T05:33:08;1.40;99.90
26503;DHT22;14177;51.520;6.764;2024-01-15T05:35:35;1.50;99.90
26503;DHT22;14177;51.520;6.764;2024-01-15T05:38:03;1.50;99.90
26503;DHT22;14177;51.520;6.764;2024-01-15T05:40:30;1.50;99.90
26503;DHT22;14177;51.520;6.764;2024-01-15T05:42:56;1.50;99.90
26503;DHT22;14177;51.520;6.764;2024-01-15T05:45:25;1.50;99.90
26503;DHT22;14177;51.520;6.764;2024-01-15T05:47:53;1.50;99.90
26503;DHT22;14177;51.520;6.764;2024-01-15T05:50:20;1.40;99.90
26503;DHT22;14177;51.520;6.764;2024-01-15T05:52:47;1.50;99.90
26503;DHT22;14177;51.520;6.764;2024-01-15T05:55:14;1.50;99.90
26503;DHT22;14177;51.520;6.764;2024-01-15T05:57:41;1.50;99.90
26503;DHT22;14177;51.520;6.764;2024-01-15T06:00:08;1.50;99.90
26503;DHT22;14177;51.520;6.764;2024-01-15T06:02:37;1.50;99.90
26503;DHT22;14177;51.520;6.764;2024-01-15T06:05:05;1.50;99.90
26503;DHT22;14177;51.520;6.764;2024-01-15T06:07:35;1.60;99.90
26503;DHT22;14177;51.520;6.764;2024-01-15T06:10:03;1.60;99.90
26503;DHT22;14177;51.520;6.764;2024-01-15T06:12:31;1.60;99.90
26503;DHT22;14177;51.520;6.764;2024-01-15T06:15:00;1.60;99.90
26503;DHT22;14177;51.520;6.764;2024-01-15T06:17:27;1.60;99.90
26503;DHT22;14177;51.520;6.764;2024-01-15T06:19:54;1.60;99.90
26503;DHT22;14177;51.520;6.764;2024-01-15T06:22:21;1.60;99.90
26503;DHT22;14177;51.520;6.764;2024-01-15T06:24:48;1.70;99.90
26503;DHT22;14177;51.520;6.764;2024-01-15T06:27:15;1.70;99.90
26503;DHT22;14177;51.520;6.764;2024-01-15T06:29:45;1.70;99.90
26503;DHT22;14177;51.520;6.764;2024-01-15T06:32:17;1.70;99.90
26503;DHT22;14177;51.520;6.764;2024-01-15T06:34:44;1.70;99.90
26503;DHT22;14177;51.520;6.764;2024-01-15T06:37:11;1.70;99.90
26503;DHT22;14177;51.520;6.764;2024-01-15T06:39:38;1.70;99.90
26503;DHT22;14177;51.520;6.764;2024-01-15T06:42:05;1.80;99.90
26503;DHT22;14177;51.520;6.764;2024-01-15T06:44:32;1.80;99.90
26503;DHT22;14177;51.520;6.764;2024-01-15T06:46:59;1.80;99.90
26503;DHT22;14177;51.520;6.764;2024-01-15T06:49:29;1.80;99.90
26503;DHT22;14177;51.520;6.764;2024-01-15T06:51:56;1.80;99.90
26503;DHT22;14177;51.520;6.764;2024-01-15T06:54:23;1.80;99.90
26503;DHT22;14177;51.520;6.764;2024-01-15T06:56:50;1.80;99.90
26503;DHT22;14177;51.520;6.764;2024-01-15T06:59:17;1.70;99.90
26503;DHT22;14177;51.520;6.764;2024-01-15T07:01:46;1.70;99.90
26503;DHT22;14177;51.520;6.764;2024-01-15T07:04:13;1.70;99.90
26503;DHT22;14177;51.520;6.764;2024-01-15T07:06:40;1.70;99.90
26503;DHT22;14177;51.520;6.764;2024-01-15T07:09:07;1.70;99.90
26503;DHT22;14177;51.520;6.764;2024-01-15T07:11:35;1.70;99.90
26503;DHT22;14177;51.520;6.764;2024-01-15T07:14:02;1.70;99.90
26503;DHT22;14177;51.520;6.764;2024-01-15T07:16:30;1.70;99.90
26503;DHT22;14177;51.520;6.764;2024-01-15T07:19:04;1.70;99.90
26503;DHT22;14177;51.520;6.764;2024-01-15T07:21:31;1.70;99.90
26503;DHT22;14177;51.520;6.764;2024-01-15T07:23:58;1.70;99.90
26503;DHT22;14177;51.520;6.764;2024-01-15T07:26:25;1.70;99.90
26503;DHT22;14177;51.520;6.764;2024-01-15T07:28:52;1.70;99.90
26503;DHT22;14177;51.520;6.764;2024-01-15T07:31:19;1.70;99.90
26503;DHT22;14177;51.520;6.764;2024-01-15T07:33:46;1.70;99.90
26503;DHT22;14177;51.520;6.764;2024-01-15T07:36:14;1.70;99.90
26503;DHT22;14177;51.520;6.764;2024-01-15T07:38:41;1.70;99.90
26503;DHT22;14177;51.520;6.764;2024-01-15T07:41:08;1.70;99.90
26503;DHT22;14177;51.520;6.764;2024-01-15T07:43:35;1.70;99.90
26503;DHT22;14177;51.520;6.764;2024-01-15T07:46:02;1.70;99.90
26503;DHT22;14177;51.520;6.764;2024-01-15T07:48:29;1.70;99.90
26503;DHT22;14177;51.520;6.764;2024-01-15T07:50:57;1.60;99.90
26503;DHT22;14177;51.520;6.764;2024-01-15T07:53:24;1.60;99.90
26503;DHT22;14177;51.520;6.764;2024-01-15T07:55:51;1.60;99.90
26503;DHT22;14177;51.520;6.764;2024-01-15T07:58:18;1.60;99.90
26503;DHT22;14177;51.520;6.764;2024-01-15T08:00:45;1.60;99.90
26503;DHT22;14177;51.520;6.764;2024-01-15T08:03:12;1.50;99.90
26503;DHT22;14177;51.520;6.764;2024-01-15T08:05:40;1.50;99.90
26503;DHT22;14177;51.520;6.764;2024-01-15T08:08:07;1.50;99.90
26503;DHT22;14177;51.520;6.764;2024-01-15T08:10:34;1.50;99.90
26503;DHT22;14177;51.520;6.764;2024-01-15T08:13:01;1.50;99.90
26503;DHT22;14177;51.520;6.764;2024-01-15T08:15:28;1.50;99.90
26503;DHT22;14177;51.520;6.764;2024-01-15T08:17:57;1.50;99.90
26503;DHT22;14177;51.520;6.764;2024-01-15T08:20:25;1.50;99.90
26503;DHT22;14177;51.520;6.764;2024-01-15T08:22:53;1.50;99.90
26503;DHT22;14177;51.520;6.764;2024-01-15T08:25:20;1.50;99.90
26503;DHT22;14177;51.520;6.764;2024-01-15T08:27:47;1.50;99.90
26503;DHT22;14177;51.520;6.764;2024-01-15T08:30:15;1.50;99.90
26503;DHT22;14177;51.520;6.764;2024-01-15T08:32:42;1.50;99.90
26503;DHT22;14177;51.520;6.764;2024-01-15T08:35:10;1.50;99.90
26503;DHT22;14177;51.520;6.764;2024-01-15T08:37:38;1.50;99.90
26503;DHT22;14177;51.520;6.764;2024-01-15T08:40:06;1.50;99.90
26503;DHT22;14177;51.520;6.764;2024-01-15T08:42:33;1.40;99.90
26503;DHT22;14177;51.520;6.764;2024-01-15T08:45:00;1.40;99.90
26503;DHT22;14177;51.520;6.764;2024-01-15T08:47:28;1.30;99.90
26503;DHT22;14177;51.520;6.764;2024-01-15T08:49:55;1.20;99.90
26503;DHT22;14177;51.520;6.764;2024-01-15T08:52:23;1.10;99.90
26503;DHT22;14177;51.520;6.764;2024-01-15T08:54:50;1.10;99.90
26503;DHT22;14177;51.520;6.764;2024-01-15T08:57:17;1.10;99.90
26503;DHT22;14177;51.520;6.764;2024-01-15T08:59:44;1.00;99.90
26503;DHT22;14177;51.520;6.764;2024-01-15T09:02:12;1.10;99.90
26503;DHT22;14177;51.520;6.764;2024-01-15T09:04:39;1.00;99.90
26503;DHT22;14177;51.520;6.764;2024-01-15T09:07:06;1.00;99.90
26503;DHT22;14177;51.520;6.764;2024-01-15T09:09:34;1.00;99.90
26503;DHT22;14177;51.520;6.764;2024-01-15T09:12:01;1.00;99.90
26503;DHT22;14177;51.520;6.764;2024-01-15T09:14:29;1.00;99.90
26503;DHT22;14177;51.520;6.764;2024-01-15T09:17:04;1.00;99.90
26503;DHT22;14177;51.520;6.764;2024-01-15T09:19:31;1.00;99.90
26503;DHT22;14177;51.520;6.764;2024-01-15T09:21:59;1.10;99.90
26503;DHT22;14177;51.520;6.764;2024-01-15T09:24:26;1.10;99.90
26503;DHT22;14177;51.520;6.764;2024-01-15T09:26:55;1.20;99.90
26503;DHT22;14177;51.520;6.764;2024-01-15T09:29:23;1.20;99.90
26503;DHT22;14177;51.520;6.764;2024-01-15T09:31:51;1.20;99.90
26503;DHT22;14177;51.520;6.764;2024-01-15T09:34:19;1.20;99.90
26503;DHT22;14177;51.520;6.764;2024-01-15T09:36:46;1.20;99.90
26503;DHT22;14177;51.520;6.764;2024-01-15T09:39:14;1.20;99.90
26503;DHT22;14177;51.520;6.764;2024-01-15T09:41:43;1.30;99.90
26503;DHT22;14177;51.520;6.764;2024-01-15T09:44:11;1.30;99.90
26503;DHT22;14177;51.520;6.764;2024-01-15T09:46:39;1.30;99.90
26503;DHT22;14177;51.520;6.764;2024-01-15T09:49:08;1.30;99.90
26503;DHT22;14177;51.520;6.764;2024-01-15T09:51:35;1.30;99.90
26503;DHT22;14177;51.520;6.764;2024-01-15T09:54:03;1.30;99.90
26503;DHT22;14177;51.520;6.764;2024-01-15T09:56:31;1.40;99.90
26503;DHT22;14177;51.520;6.764;2024-01-15T09:59:01;1.40;99.90
26503;DHT22;14177;51.520;6.764;2024-01-15T10:01:39;1.40;99.90
26503;DHT22;14177;51.520;6.764;2024-01-15T10:04:07;1.40;99.90
26503;DHT22;14177;51.520;6.764;2024-01-15T10:06:35;1.40;99.90
26503;DHT22;14177;51.520;6.764;2024-01-15T10:09:03;1.40;99.90
26503;DHT22;14177;51.520;6.764;2024-01-15T10:11:30;1.50;99.90
26503;DHT22;14177;51.520;6.764;2024-01-15T10:13:57;1.50;99.90
26503;DHT22;14177;51.520;6.764;2024-01-15T10:16:26;1.60;99.90
26503;DHT22;14177;51.520;6.764;2024-01-15T10:18:52;1.60;99.90
26503;DHT22;14177;51.520;6.764;2024-01-15T10:21:20;1.60;99.90
26503;DHT22;14177;51.520;6.764;2024-01-15T10:23:47;1.60;99.90
26503;DHT22;14177;51.520;6.764;2024-01-15T10:26:13;1.60;99.90
26503;DHT22;14177;51.520;6.764;2024-01-15T10:28:44;1.70;99.90
26503;DHT22;14177;51.520;6.764;2024-01-15T10:31:12;1.70;99.90
26503;DHT22;14177;51.520;6.764;2024-01-15T10:33:39;1.70;99.90
26503;DHT22;14177;51.520;6.764;2024-01-15T10:36:09;1.70;99.90
26503;DHT22;14177;51.520;6.764;2024-01-15T10:38:38;1.60;99.90
26503;DHT22;14177;51.520;6.764;2024-01-15T10:41:05;1.60;99.90
26503;DHT22;14177;51.520;6.764;2024-01-15T10:43:32;1.60;99.90
26503;DHT22;14177;51.520;6.764;2024-01-15T10:46:00;1.60;99.90
26503;DHT22;14177;51.520;6.764;2024-01-15T10:48:28;1.60;99.90
26503;DHT22;14177;51.520;6.764;2024-01-15T10:50:58;1.60;99.90
26503;DHT22;14177;51.520;6.764;2024-01-15T10:53:25;1.70;99.90
26503;DHT22;14177;51.520;6.764;2024-01-15T10:55:53;1.70;99.90
26503;DHT22;14177;51.520;6.764;2024-01-15T10:58:21;1.90;99.90
26503;DHT22;14177;51.520;6.764;2024-01-15T11:00:50;1.90;99.90
26503;DHT22;14177;51.520;6.764;2024-01-15T11:03:18;1.90;99.90
26503;DHT22;14177;51.520;6.764;2024-01-15T11:05:46;1.80;99.90
26503;DHT22;14177;51.520;6.764;2024-01-15T11:08:17;1.90;99.90
26503;DHT22;14177;51.520;6.764;2024-01-15T11:10:47;1.90;99.90
26503;DHT22;14177;51.520;6.764;2024-01-15T11:18:41;1.90;99.90
26503;DHT22;14177;51.520;6.764;2024-01-15T11:26:44;2.00;99.90
26503;DHT22;14177;51.520;6.764;2024-01-15T11:29:35;2.10;99.90
26503;DHT22;14177;51.520;6.764;2024-01-15T11:32:06;2.00;99.90
26503;DHT22;14177;51.520;6.764;2024-01-15T11:34:58;2.00;99.90
26503;DHT22;14177;51.520;6.764;2024-01-15T11:40:22;2.00;99.90
26503;DHT22;14177;51.520;6.764;2024-01-15T11:43:05;2.10;99.90
26503;DHT22;14177;51.520;6.764;2024-01-15T11:45:37;2.00;99.90
26503;DHT22;14177;51.520;6.764;2024-01-15T11:48:15;2.10;99.90
26503;DHT22;14177;51.520;6.764;2024-01-15T11:50:49;2.00;99.90
26503;DHT22;14177;51.520;6.764;2024-01-15T11:56:02;2.00;99.90
26503;DHT22;14177;51.520;6.764;2024-01-15T11:58:30;2.10;99.90
26503;DHT22;14177;51.520;6.764;2024-01-15T12:00:58;2.00;99.90
26503;DHT22;14177;51.520;6.764;2024-01-15T12:03:26;2.00;99.90
26503;DHT22;14177;51.520;6.764;2024-01-15T12:05:53;2.10;99.90
26503;DHT22;14177;51.520;6.764;2024-01-15T12:08:22;2.10;99.90
26503;DHT22;14177;51.520;6.764;2024-01-15T12:10:50;2.30;99.90
26503;DHT22;14177;51.520;6.764;2024-01-15T12:13:19;2.80;99.90
26503;DHT22;14177;51.520;6.764;2024-01-15T12:15:47;3.00;99.90
26503;DHT22;14177;51.520;6.764;2024-01-15T12:18:17;3.20;99.90
26503;DHT22;14177;51.520;6.764;2024-01-15T12:20:46;3.40;99.90
26503;DHT22;14177;51.520;6.764;2024-01-15T12:23:15;3.70;99.90
26503;DHT22;14177;51.520;6.764;2024-01-15T12:25:48;3.50;99.90
26503;DHT22;14177;51.520;6.764;2024-01-15T12:28:21;3.40;99.90
26503;DHT22;14177;51.520;6.764;2024-01-15T12:30:52;3.30;99.90
26503;DHT22;14177;51.520;6.764;2024-01-15T12:33:27;3.10;99.90
26503;DHT22;14177;51.520;6.764;2024-01-15T12:36:21;3.10;99.90
26503;DHT22;14177;51.520;6.764;2024-01-15T12:39:02;2.90;99.90
26503;DHT22;14177;51.520;6.764;2024-01-15T12:41:54;2.70;99.90
26503;DHT22;14177;51.520;6.764;2024-01-15T12:45:00;2.70;99.90
26503;DHT22;14177;51.520;6.764;2024-01-15T12:47:56;2.70;99.90
26503;DHT22;14177;51.520;6.764;2024-01-15T12:50:35;2.60;99.90
26503;DHT22;14177;51.520;6.764;2024-01-15T12:53:20;2.60;99.90
26503;DHT22;14177;51.520;6.764;2024-01-15T12:55:59;2.60;99.90
26503;DHT22;14177;51.520;6.764;2024-01-15T12:58:39;2.50;99.90
26503;DHT22;14177;51.520;6.764;2024-01-15T13:01:25;2.60;99.90
26503;DHT22;14177;51.520;6.764;2024-01-15T13:04:27;2.70;99.90
26503;DHT22;14177;51.520;6.764;2024-01-15T13:07:10;2.80;99.90
26503;DHT22;14177;51.520;6.764;2024-01-15T13:09:40;2.80;99.90
26503;DHT22;14177;51.520;6.764;2024-01-15T13:12:17;2.80;99.90
26503;DHT22;14177;51.520;6.764;2024-01-15T13:14:46;2.70;99.90
26503;DHT22;14177;51.520;6.764;2024-01-15T13:17:21;2.60;99.90
26503;DHT22;14177;51.520;6.764;2024-01-15T13:19:53;2.60;99.90
26503;DHT22;14177;51.520;6.764;2024-01-15T13:22:32;2.50;99.90
26503;DHT22;14177;51.520;6.764;2024-01-15T13:25:13;2.50;99.90
26503;DHT22;14177;51.520;6.764;2024-01-15T13:27:56;2.50;99.90
26503;DHT22;14177;51.520;6.764;2024-01-15T13:30:31;2.50;99.90
26503;DHT22;14177;51.520;6.764;2024-01-15T13:33:03;2.50;99.90
26503;DHT22;14177;51.520;6.764;2024-01-15T13:35:45;2.50;99.90
26503;DHT22;14177;51.520;6.764;2024-01-15T13:38:44;2.60;99.90
26503;DHT22;14177;51.520;6.764;2024-01-15T13:41:14;2.70;99.90
26503;DHT22;14177;51.520;6.764;2024-01-15T13:43:50;2.60;99.90
26503;DHT22;14177;51.520;6.764;2024-01-15T13:46:25;2.60;99.90
26503;DHT22;14177;51.520;6.764;2024-01-15T13:49:02;2.60;99.90
26503;DHT22;14177;51.520;6.764;2024-01-15T13:52:14;2.50;99.90
26503;DHT22;14177;51.520;6.764;2024-01-15T13:55:13;2.60;99.90
26503;DHT22;14177;51.520;6.764;2024-01-15T13:58:10;2.50;99.90
26503;DHT22;14177;51.520;6.764;2024-01-15T14:00:45;2.50;99.90
26503;DHT22;14177;51.520;6.764;2024-01-15T14:03:12;2.40;99.90
26503;DHT22;14177;51.520;6.764;2024-01-15T14:05:39;2.40;99.90
26503;DHT22;14177;51.520;6.764;2024-01-15T14:08:06;2.30;99.90
26503;DHT22;14177;51.520;6.764;2024-01-15T14:10:34;2.30;99.90
26503;DHT22;14177;51.520;6.764;2024-01-15T14:13:01;2.30;99.90
26503;DHT22;14177;51.520;6.764;2024-01-15T14:15:29;2.30;99.90
26503;DHT22;14177;51.520;6.764;2024-01-15T14:17:56;2.20;99.90
26503;DHT22;14177;51.520;6.764;2024-01-15T14:20:25;2.20;99.90
26503;DHT22;14177;51.520;6.764;2024-01-15T14:22:52;2.20;99.90
26503;DHT22;14177;51.520;6.764;2024-01-15T14:25:19;2.30;99.90
26503;DHT22;14177;51.520;6.764;2024-01-15T14:27:47;2.30;99.90
26503;DHT22;14177;51.520;6.764;2024-01-15T14:30:14;2.30;99.90
26503;DHT22;14177;51.520;6.764;2024-01-15T14:32:43;2.30;99.90
26503;DHT22;14177;51.520;6.764;2024-01-15T14:35:10;2.30;99.90
26503;DHT22;14177;51.520;6.764;2024-01-15T14:37:38;2.30;99.90
26503;DHT22;14177;51.520;6.764;2024-01-15T14:40:06;2.30;99.90
26503;DHT22;14177;51.520;6.764;2024-01-15T14:42:43;2.40;99.90
26503;DHT22;14177;51.520;6.764;2024-01-15T14:45:10;2.50;99.90
26503;DHT22;14177;51.520;6.764;2024-01-15T14:47:41;2.50;99.90
26503;DHT22;14177;51.520;6.764;2024-01-15T14:50:09;2.50;99.90
26503;DHT22;14177;51.520;6.764;2024-01-15T14:52:37;2.40;99.90
26503;DHT22;14177;51.520;6.764;2024-01-15T14:55:04;2.30;99.90
26503;DHT22;14177;51.520;6.764;2024-01-15T14:57:31;2.30;99.90
26503;DHT22;14177;51.520;6.764;2024-01-15T14:59:58;2.20;99.90
26503;DHT22;14177;51.520;6.764;2024-01-15T15:02:26;2.20;99.90
26503;DHT22;14177;51.520;6.764;2024-01-15T15:04:58;2.20;99.90
26503;DHT22;14177;51.520;6.764;2024-01-15T15:07:26;2.20;99.90
26503;DHT22;14177;51.520;6.764;2024-01-15T15:09:54;2.10;99.90
26503;DHT22;14177;51.520;6.764;2024-01-15T15:12:21;2.10;99.90
26503;DHT22;14177;51.520;6.764;2024-01-15T15:14:48;2.20;99.90
26503;DHT22;14177;51.520;6.764;2024-01-15T15:17:29;2.20;99.90
26503;DHT22;14177;51.520;6.764;2024-01-15T15:19:56;2.50;99.90
26503;DHT22;14177;51.520;6.764;2024-01-15T15:22:24;2.70;99.90
26503;DHT22;14177;51.520;6.764;2024-01-15T15:24:51;2.70;99.90
26503;DHT22;14177;51.520;6.764;2024-01-15T15:27:18;2.60;99.90
26503;DHT22;14177;51.520;6.764;2024-01-15T15:29:45;2.40;99.90
26503;DHT22;14177;51.520;6.764;2024-01-15T15:32:12;2.30;99.90
26503;DHT22;14177;51.520;6.764;2024-01-15T15:34:39;2.20;99.90
26503;DHT22;14177;51.520;6.764;2024-01-15T15:37:06;2.20;99.90
26503;DHT22;14177;51.520;6.764;2024-01-15T15:39:34;2.10;99.90
26503;DHT22;14177;51.520;6.764;2024-01-15T15:42:01;2.00;99.90
26503;DHT22;14177;51.520;6.764;2024-01-15T15:44:29;1.90;99.90
26503;DHT22;14177;51.520;6.764;2024-01-15T15:46:56;1.90;99.90
26503;DHT22;14177;51.520;6.764;2024-01-15T15:49:23;1.90;99.90
26503;DHT22;14177;51.520;6.764;2024-01-15T15:51:51;1.90;99.90
26503;DHT22;14177;51.520;6.764;2024-01-15T15:54:18;1.80;99.90
26503;DHT22;14177;51.520;6.764;2024-01-15T15:56:45;1.80;99.90
26503;DHT22;14177;51.520;6.764;2024-01-15T15:59:16;1.70;99.90
26503;DHT22;14177;51.520;6.764;2024-01-15T16:01:46;1.70;99.90
26503;DHT22;14177;51.520;6.764;2024-01-15T16:04:13;1.70;99.90
26503;DHT22;14177;51.520;6.764;2024-01-15T16:06:42;1.70;99.90
26503;DHT22;14177;51.520;6.764;2024-01-15T16:09:09;1.60;99.90
26503;DHT22;14177;51.520;6.764;2024-01-15T16:11:38;1.50;99.90
26503;DHT22;14177;51.520;6.764;2024-01-15T16:14:05;1.50;99.90